Time;durP1;ratioP1;P1;durP2;ratioP2;P2;SDS_P1;SDS_P2;PMS_P1;PMS_P2;Temp;Humidity;BMP_temperature;BMP_pressure;BME280_temperature;BME280_humidity;BME280_pressure;Samples;Min_cycle;Max_cycle;Signal;HPM_P1;HPM_P2
2023/06/06 00:01:18;;;;;;;9.25;4.20;;;;;;;9.83;77.14;99778.03;5054734;28;20058;-72
2023/06/06 00:03:44;;;;;;;6.03;3.33;;;;;;;9.82;77.33;99750.53;5036748;28;20048;-71
2023/06/06 00:06:11;;;;;;;4.93;3.45;;;;;;;9.83;76.70;99746.06;5055395;28;20043;-71
2023/06/06 00:08:36;;;;;;;6.38;3.80;;;;;;;9.85;77.36;99757.47;5055260;28;20040;-71
2023/06/06 00:11:01;;;;;;;8.77;4.32;;;;;;;9.87;77.22;99755.56;5054026;28;20044;-70
2023/06/06 00:13:31;;;;;;;9.73;3.67;;;;;;;9.87;77.25;99763.56;5054912;28;20059;-71
2023/06/06 00:15:58;;;;;;;8.15;3.97;;;;;;;9.88;77.00;99764.41;5054067;28;20040;-71
2023/06/06 00:18:26;;;;;;;8.38;4.10;;;;;;;9.88;77.00;99753.78;5055223;28;20040;-71
2023/06/06 00:20:53;;;;;;;15.55;4.20;;;;;;;9.87;76.53;99752.91;5020615;28;20477;-69
2023/06/06 00:23:18;;;;;;;9.63;3.72;;;;;;;9.85;77.20;99770.81;5053385;28;20043;-68
2023/06/06 00:25:43;;;;;;;7.15;4.00;;;;;;;9.85;76.72;99754.81;5037235;28;20043;-70
2023/06/06 00:28:08;;;;;;;8.52;4.28;;;;;;;9.86;76.99;99777.84;5054627;28;20402;-69
2023/06/06 00:30:34;;;;;;;6.10;3.38;;;;;;;9.88;77.67;99769.75;5033511;28;20051;-69
2023/06/06 00:32:59;;;;;;;6.05;3.45;;;;;;;9.89;76.74;99772.31;5036805;28;20536;-70
2023/06/06 00:35:24;;;;;;;6.68;3.60;;;;;;;9.91;77.42;99780.22;5053503;28;20048;-70
2023/06/06 00:37:50;;;;;;;5.07;3.70;;;;;;;9.95;77.95;99766.56;5054669;28;20359;-69
2023/06/06 00:40:15;;;;;;;4.60;3.50;;;;;;;9.97;77.51;99763.81;5016894;28;20044;-70
2023/06/06 00:42:40;;;;;;;6.38;3.45;;;;;;;10.02;77.33;99761.69;5028743;28;20533;-71
2023/06/06 00:45:06;;;;;;;6.90;3.78;;;;;;;10.04;77.18;99771.31;5052381;28;20039;-71
2023/06/06 00:47:32;;;;;;;5.53;3.63;;;;;;;10.09;77.64;99769.16;5053194;28;20068;-71
2023/06/06 00:49:57;;;;;;;5.50;3.58;;;;;;;10.13;77.36;99764.50;5053068;28;20522;-70
2023/06/06 00:52:24;;;;;;;5.22;3.30;;;;;;;10.17;76.94;99771.28;5040600;28;20047;-72
2023/06/06 00:54:50;;;;;;;6.72;3.92;;;;;;;10.19;76.47;99775.59;5048164;28;20052;-71
2023/06/06 00:57:18;;;;;;;5.30;3.20;;;;;;;10.25;76.27;99773.50;5033541;28;20498;-70
2023/06/06 00:59:45;;;;;;;7.38;4.28;;;;;;;10.29;76.76;99781.16;5033303;28;20044;-71
2023/06/06 01:02:14;;;;;;;10.02;3.60;;;;;;;10.33;76.36;99781.81;5054016;28;20078;-70
2023/06/06 01:04:40;;;;;;;4.82;3.40;;;;;;;10.35;76.23;99795.88;5053906;28;20083;-73
2023/06/06 01:07:09;;;;;;;4.78;3.40;;;;;;;10.38;76.52;99777.91;5035582;28;20413;-70
2023/06/06 01:09:39;;;;;;;6.65;3.67;;;;;;;10.45;75.90;99786.31;5053828;28;20035;-71
2023/06/06 01:12:32;;;;;;;4.30;3.38;;;;;;;10.51;76.35;99793.88;5001466;28;20410;-73
2023/06/06 01:15:16;;;;;;;6.95;3.90;;;;;;;10.55;76.05;99788.22;5013048;28;20063;-76
2023/06/06 01:17:46;;;;;;;11.65;3.85;;;;;;;10.51;75.81;99791.19;5033638;28;20520;-74
2023/06/06 01:20:12;;;;;;;9.18;4.05;;;;;;;10.53;75.36;99799.94;5037672;28;20044;-74
2023/06/06 01:22:38;;;;;;;6.72;3.53;;;;;;;10.56;75.38;99789.09;5038010;28;20052;-71
2023/06/06 01:25:06;;;;;;;9.15;4.13;;;;;;;10.57;74.81;99790.78;5054977;28;20490;-72
2023/06/06 01:27:33;;;;;;;6.15;4.00;;;;;;;10.59;75.17;99820.88;5018802;28;20051;-70
2023/06/06 01:29:59;;;;;;;6.07;3.20;;;;;;;10.62;74.83;99798.44;5052910;28;20047;-72
2023/06/06 01:32:38;;;;;;;7.88;3.70;;;;;;;10.67;74.79;99796.34;5044613;28;20044;-71
2023/06/06 01:35:13;;;;;;;4.97;3.55;;;;;;;10.69;74.63;99799.75;5034480;28;20056;-71
2023/06/06 01:37:48;;;;;;;8.50;3.58;;;;;;;10.70;74.54;99801.47;5055408;28;20071;-71
2023/06/06 01:40:17;;;;;;;5.05;3.40;;;;;;;10.69;75.07;99794.44;5052906;28;20051;-72
2023/06/06 01:42:45;;;;;;;7.80;3.58;;;;;;;10.69;74.89;99805.94;5054397;28;20040;-72
2023/06/06 01:45:12;;;;;;;3.22;2.90;;;;;;;10.71;75.39;99813.84;5054600;28;20047;-72
2023/06/06 01:47:39;;;;;;;5.68;3.70;;;;;;;10.74;75.37;99797.59;5052652;28;20036;-71
2023/06/06 01:50:07;;;;;;;4.20;3.78;;;;;;;10.77;74.94;99814.25;5020497;28;20044;-76
2023/06/06 01:52:37;;;;;;;6.30;3.92;;;;;;;10.85;75.07;99800.38;5034683;28;20777;-76
2023/06/06 01:55:05;;;;;;;8.57;4.00;;;;;;;10.86;75.21;99818.94;5053878;28;20052;-75
2023/06/06 01:57:30;;;;;;;9.07;3.90;;;;;;;10.91;74.76;99811.50;5016172;28;20418;-75
2023/06/06 01:59:56;;;;;;;4.30;2.90;;;;;;;10.96;74.67;99799.63;5033779;28;20045;-75
2023/06/06 02:02:21;;;;;;;4.68;3.63;;;;;;;10.98;74.78;99805.72;5036311;28;20044;-78
2023/06/06 02:04:48;;;;;;;6.80;3.53;;;;;;;11.01;74.46;99801.03;5040475;28;20398;-78
2023/06/06 02:07:14;;;;;;;5.30;3.65;;;;;;;11.05;73.93;99799.84;5058610;28;20052;-76
2023/06/06 02:09:39;;;;;;;5.18;3.90;;;;;;;11.11;74.03;99806.56;5020493;28;20526;-79
2023/06/06 02:12:05;;;;;;;7.72;4.50;;;;;;;11.17;73.97;99822.97;5038432;28;20044;-69
2023/06/06 02:14:30;;;;;;;6.18;3.80;;;;;;;11.21;73.92;99813.78;5034114;28;20044;-70
2023/06/06 02:16:57;;;;;;;4.40;3.17;;;;;;;11.25;73.84;99823.28;5024200;28;20063;-71
2023/06/06 02:19:22;;;;;;;6.38;3.38;;;;;;;11.31;73.75;99830.00;5057610;28;20047;-70
2023/06/06 02:21:48;;;;;;;9.82;3.65;;;;;;;11.36;74.42;99808.31;5036023;28;20040;-69
2023/06/06 02:24:15;;;;;;;6.30;4.03;;;;;;;11.42;74.34;99810.53;5056094;28;20052;-71
2023/06/06 02:26:42;;;;;;;4.80;3.40;;;;;;;11.46;73.77;99817.38;5051415;28;20045;-71
2023/06/06 02:29:08;;;;;;;5.60;3.60;;;;;;;11.53;73.82;99813.28;5054787;28;20052;-72
2023/06/06 02:31:36;;;;;;;5.60;3.45;;;;;;;11.57;73.55;99814.78;5039385;28;20066;-72
2023/06/06 02:34:01;;;;;;;4.88;3.50;;;;;;;11.60;73.48;99819.91;5037268;28;20051;-69
2023/06/06 02:36:29;;;;;;;5.65;3.90;;;;;;;11.69;73.33;99813.03;5055426;28;20044;-69
2023/06/06 02:38:55;;;;;;;6.18;3.35;;;;;;;11.75;73.19;99817.91;5056047;28;20051;-71
2023/06/06 02:41:20;;;;;;;4.60;3.60;;;;;;;11.79;73.10;99814.09;5055934;28;20532;-66
2023/06/06 02:43:47;;;;;;;5.45;3.53;;;;;;;11.84;72.97;99796.78;5071619;28;20063;-69
2023/06/06 02:46:12;;;;;;;5.00;3.50;;;;;;;11.88;72.53;99806.25;5055819;28;20066;-72
2023/06/06 02:48:37;;;;;;;3.80;3.05;;;;;;;11.96;72.36;99806.50;5057000;28;20047;-69
2023/06/06 02:51:03;;;;;;;7.63;3.10;;;;;;;12.05;72.17;99814.84;5051021;28;20039;-68
2023/06/06 02:53:31;;;;;;;5.15;2.88;;;;;;;12.11;71.91;99812.53;5020324;28;20146;-70
2023/06/06 02:55:57;;;;;;;4.55;2.72;;;;;;;12.18;71.31;99815.63;5038705;28;20043;-72
2023/06/06 02:58:29;;;;;;;3.45;2.90;;;;;;;12.29;70.80;99819.19;5055531;28;20410;-70
2023/06/06 03:00:59;;;;;;;7.25;3.42;;;;;;;12.34;69.95;99811.66;5051998;28;20047;-70
2023/06/06 03:03:24;;;;;;;8.32;3.38;;;;;;;12.40;69.54;99812.16;5035392;28;20056;-76
2023/06/06 03:05:54;;;;;;;5.70;2.85;;;;;;;12.44;69.01;99849.25;5037395;28;20044;-77
2023/06/06 03:08:20;;;;;;;6.13;3.10;;;;;;;12.49;68.04;99815.00;5031759;28;20064;-74
2023/06/06 03:10:49;;;;;;;7.10;2.83;;;;;;;12.50;68.02;99822.03;5032256;28;20036;-74
2023/06/06 03:13:16;;;;;;;4.68;3.20;;;;;;;12.51;67.42;99829.09;5030094;28;20514;-76
2023/06/06 03:15:46;;;;;;;6.03;3.15;;;;;;;12.54;67.58;99849.38;5019452;28;20044;-74
2023/06/06 03:18:16;;;;;;;5.63;3.53;;;;;;;12.60;67.61;99859.63;5035786;28;20048;-73
2023/06/06 03:20:45;;;;;;;4.28;3.10;;;;;;;12.69;67.06;99837.53;5036022;28;20041;-72
2023/06/06 03:23:12;;;;;;;7.90;3.50;;;;;;;12.76;66.74;99859.28;5034286;28;20044;-71
2023/06/06 03:25:43;;;;;;;19.52;3.45;;;;;;;12.85;66.10;99826.50;5042281;28;20736;-71
2023/06/06 03:28:13;;;;;;;5.53;2.60;;;;;;;12.94;65.95;99831.97;5015896;28;20048;-75
2023/06/06 03:30:39;;;;;;;6.43;2.55;;;;;;;13.04;65.71;99794.63;5027154;28;20045;-73
2023/06/06 03:33:08;;;;;;;5.10;3.38;;;;;;;13.14;65.48;99827.75;5009988;28;20053;-74
2023/06/06 03:35:36;;;;;;;6.07;3.20;;;;;;;13.28;64.95;99832.88;5017149;28;20055;-74
2023/06/06 03:38:04;;;;;;;3.67;2.55;;;;;;;13.42;64.80;99832.63;5026826;28;20383;-73
2023/06/06 03:40:30;;;;;;;7.43;3.03;;;;;;;13.64;63.83;99831.75;5035240;28;20055;-72
2023/06/06 03:42:56;;;;;;;5.32;2.58;;;;;;;13.85;63.44;99849.72;5018476;28;20053;-74
2023/06/06 03:45:22;;;;;;;5.15;2.63;;;;;;;14.05;62.84;99831.03;4999577;28;20055;-75
2023/06/06 03:47:49;;;;;;;3.95;3.30;;;;;;;14.26;62.45;99832.91;5045157;28;20048;-73
2023/06/06 03:50:14;;;;;;;3.08;2.78;;;;;;;14.39;60.92;99828.22;5017797;28;20538;-73
2023/06/06 03:52:40;;;;;;;4.80;3.35;;;;;;;14.53;60.78;99831.47;5046676;28;20051;-73
2023/06/06 03:55:07;;;;;;;4.05;2.78;;;;;;;14.70;60.92;99832.69;5000780;28;20056;-74
2023/06/06 03:57:33;;;;;;;4.15;2.83;;;;;;;14.84;59.20;99829.69;5035043;28;20498;-73
2023/06/06 03:59:58;;;;;;;3.72;2.10;;;;;;;15.00;59.39;99844.50;5032377;28;20053;-73
2023/06/06 04:02:23;;;;;;;2.33;2.13;;;;;;;15.13;58.38;99835.22;5031600;28;20068;-73
2023/06/06 04:04:52;;;;;;;4.05;2.67;;;;;;;15.26;58.55;99845.72;5005493;28;20555;-74
2023/06/06 04:07:18;;;;;;;4.82;2.72;;;;;;;15.41;58.11;99827.44;5036135;28;20048;-74
2023/06/06 04:09:45;;;;;;;3.05;2.42;;;;;;;15.56;57.63;99832.34;5034838;28;20055;-73
2023/06/06 04:12:11;;;;;;;4.30;2.65;;;;;;;15.70;56.73;99816.78;4985260;28;20499;-74
2023/06/06 04:14:36;;;;;;;3.95;2.40;;;;;;;15.83;56.62;99812.00;5018149;28;20123;-74
2023/06/06 04:17:01;;;;;;;4.28;2.53;;;;;;;15.92;55.90;99822.78;5036048;28;20044;-74
2023/06/06 04:19:27;;;;;;;2.28;2.05;;;;;;;16.00;56.07;99816.72;5034868;28;20040;-74
2023/06/06 04:21:52;;;;;;;4.13;2.38;;;;;;;16.08;55.56;99806.09;5018516;28;20048;-73
2023/06/06 04:24:17;;;;;;;5.65;2.03;;;;;;;16.17;54.88;99810.63;5035663;28;20044;-73
2023/06/06 04:26:43;;;;;;;4.70;2.35;;;;;;;16.32;54.92;99816.44;5034732;28;20063;-74
2023/06/06 04:29:13;;;;;;;3.97;2.33;;;;;;;16.48;54.50;99807.81;5017639;28;20427;-73
2023/06/06 04:31:44;;;;;;;5.05;2.60;;;;;;;16.63;53.92;99807.25;5053231;28;20044;-76
2023/06/06 04:34:12;;;;;;;2.40;2.13;;;;;;;16.81;53.70;99811.91;5018411;28;20048;-76
2023/06/06 04:36:38;;;;;;;5.15;2.63;;;;;;;17.06;53.24;99813.94;5034864;28;20440;-75
2023/06/06 04:39:07;;;;;;;4.03;2.70;;;;;;;17.32;52.98;99816.81;5033730;28;20048;-75
2023/06/06 04:41:33;;;;;;;3.30;2.40;;;;;;;17.60;52.13;99833.88;5000371;28;20143;-76
2023/06/06 04:44:01;;;;;;;8.55;2.58;;;;;;;17.93;51.23;99821.66;5024188;28;20040;-73
2023/06/06 04:46:29;;;;;;;4.03;2.45;;;;;;;18.35;50.56;99809.25;5000275;28;20055;-74
2023/06/06 04:48:56;;;;;;;7.25;2.33;;;;;;;18.79;49.68;99828.19;5033808;28;20422;-77
2023/06/06 04:51:29;;;;;;;3.30;2.30;;;;;;;19.23;48.20;99773.06;5035152;28;20056;-76
2023/06/06 04:53:58;;;;;;;4.57;2.55;;;;;;;19.59;47.26;99810.78;5018747;28;20507;-75
2023/06/06 04:56:25;;;;;;;3.35;1.75;;;;;;;19.95;46.10;99800.59;5050925;28;20051;-73
2023/06/06 04:58:52;;;;;;;2.40;1.85;;;;;;;20.26;45.67;99792.66;5035189;28;20127;-74
2023/06/06 05:01:18;;;;;;;2.45;2.25;;;;;;;20.59;45.01;99789.00;5041652;28;20421;-74
2023/06/06 05:03:43;;;;;;;2.40;2.20;;;;;;;20.89;43.84;99778.44;5054285;28;20056;-74
2023/06/06 05:06:08;;;;;;;4.35;2.20;;;;;;;21.10;42.62;99777.91;5053851;28;20044;-74
2023/06/06 05:08:39;;;;;;;7.22;2.70;;;;;;;21.19;42.08;99810.28;5055175;28;20044;-75
2023/06/06 05:11:05;;;;;;;3.92;2.40;;;;;;;21.32;42.10;99769.06;5037304;28;20052;-74
2023/06/06 05:13:30;;;;;;;4.25;2.60;;;;;;;21.37;41.48;99777.50;5019905;28;20384;-75
2023/06/06 05:15:55;;;;;;;3.83;2.45;;;;;;;21.50;41.29;99787.78;5020639;28;20050;-74
2023/06/06 05:18:22;;;;;;;3.55;1.83;;;;;;;21.66;40.86;99785.00;5021551;28;20048;-74
2023/06/06 05:20:47;;;;;;;2.70;2.17;;;;;;;21.92;40.42;99790.97;5055263;28;20047;-73
2023/06/06 05:23:12;;;;;;;2.22;1.92;;;;;;;22.24;39.84;99786.34;5055193;28;20035;-74
2023/06/06 05:25:37;;;;;;;2.90;2.10;;;;;;;22.50;39.06;99786.84;5054800;28;20059;-76
2023/06/06 05:28:03;;;;;;;4.00;2.20;;;;;;;22.65;39.09;99768.72;5036830;28;20048;-74
2023/06/06 05:30:28;;;;;;;2.53;2.17;;;;;;;22.86;38.56;99786.22;5036310;28;20048;-77
2023/06/06 05:32:53;;;;;;;5.78;2.55;;;;;;;22.99;38.19;99778.28;5068227;28;20137;-76
2023/06/06 05:35:18;;;;;;;2.50;2.22;;;;;;;23.19;37.56;99803.88;5057875;28;20044;-74
2023/06/06 05:37:44;;;;;;;2.47;2.28;;;;;;;23.25;37.23;99781.34;5059098;28;20050;-76
2023/06/06 05:40:09;;;;;;;5.40;2.72;;;;;;;23.41;36.65;99793.94;5040831;28;20052;-76
2023/06/06 05:42:35;;;;;;;3.72;2.67;;;;;;;23.72;36.65;99780.13;5053054;28;20052;-77
2023/06/06 05:45:00;;;;;;;7.60;2.20;;;;;;;23.98;36.55;99766.81;5041802;28;20058;-76
2023/06/06 05:47:26;;;;;;;3.58;2.03;;;;;;;24.36;35.37;99785.69;5041272;28;20044;-75
2023/06/06 05:49:51;;;;;;;2.72;2.33;;;;;;;24.59;34.50;99742.72;5059549;28;20048;-75
2023/06/06 05:52:16;;;;;;;2.35;2.15;;;;;;;24.99;34.62;99765.69;5059755;28;20059;-76
2023/06/06 05:54:41;;;;;;;3.10;2.33;;;;;;;25.42;33.50;99768.25;5058983;28;20044;-76
2023/06/06 05:57:22;;;;;;;2.15;1.95;;;;;;;26.13;31.60;99760.56;5040732;28;20048;-76
2023/06/06 05:59:48;;;;;;;2.55;2.35;;;;;;;26.94;31.27;99764.88;5037136;28;20071;-76
2023/06/06 06:02:13;;;;;;;6.82;2.45;;;;;;;27.63;30.01;99783.47;5024748;28;20510;-75
2023/06/06 06:04:39;;;;;;;3.85;2.17;;;;;;;28.19;29.21;99758.13;5037997;28;20051;-75
2023/06/06 06:07:05;;;;;;;2.22;2.08;;;;;;;28.68;28.52;99751.00;5019522;28;20067;-75
2023/06/06 06:09:30;;;;;;;2.20;1.80;;;;;;;28.98;27.97;99753.94;5038136;28;20052;-76
2023/06/06 06:11:55;;;;;;;3.45;2.20;;;;;;;29.50;27.58;99753.38;5038091;28;20040;-75
2023/06/06 06:14:20;;;;;;;8.45;2.42;;;;;;;30.11;26.85;99760.66;5019963;28;21018;-74
2023/06/06 06:16:46;;;;;;;2.70;2.50;;;;;;;30.47;26.65;99754.19;5019665;28;20511;-74
2023/06/06 06:19:11;;;;;;;2.47;2.30;;;;;;;30.94;25.53;99759.72;5037560;28;20053;-74
2023/06/06 06:21:36;;;;;;;3.85;2.60;;;;;;;31.50;24.93;99745.34;5037674;28;20123;-75
2023/06/06 06:24:01;;;;;;;5.43;2.70;;;;;;;31.96;24.35;99747.13;5019558;28;20060;-74
2023/06/06 06:26:26;;;;;;;5.88;2.38;;;;;;;32.31;24.29;99737.88;5037819;28;20043;-76
2023/06/06 06:28:54;;;;;;;2.80;2.60;;;;;;;32.72;24.08;99743.06;5019310;28;20056;-75
2023/06/06 06:31:20;;;;;;;4.85;2.75;;;;;;;32.97;23.37;99747.28;5002922;28;20052;-75
2023/06/06 06:33:45;;;;;;;2.70;2.50;;;;;;;33.16;23.16;99748.69;5036421;28;20052;-76
2023/06/06 06:36:11;;;;;;;7.47;3.45;;;;;;;33.43;22.81;99741.34;5019573;28;20060;-75
2023/06/06 06:38:36;;;;;;;2.90;2.63;;;;;;;33.69;22.62;99766.56;5019389;28;20063;-77
2023/06/06 06:41:01;;;;;;;2.67;2.47;;;;;;;33.94;22.42;99741.16;5019489;28;20044;-78
2023/06/06 06:43:26;;;;;;;6.85;2.80;;;;;;;34.26;22.05;99772.53;5019800;28;20404;-76
2023/06/06 06:45:58;;;;;;;3.15;2.78;;;;;;;34.60;21.96;99742.66;5051369;28;20045;-75
2023/06/06 06:48:23;;;;;;;3.50;3.20;;;;;;;35.01;21.51;99737.44;5020366;28;20051;-75
2023/06/06 06:50:49;;;;;;;12.15;10.48;;;;;;;35.49;21.45;99770.47;5018959;28;20411;-75
2023/06/06 06:53:16;;;;;;;4.93;3.80;;;;;;;35.92;20.90;99722.13;5035990;28;20040;-75
2023/06/06 06:55:44;;;;;;;7.63;3.50;;;;;;;36.26;20.67;99739.16;5018053;28;20052;-75
2023/06/06 06:58:09;;;;;;;3.40;3.20;;;;;;;36.69;20.31;99723.91;5019261;28;20044;-76
2023/06/06 07:00:34;;;;;;;3.35;3.15;;;;;;;37.11;20.06;99725.53;5019420;28;20044;-75
2023/06/06 07:02:59;;;;;;;4.53;3.25;;;;;;;37.57;19.56;99728.19;5022082;28;20052;-76
2023/06/06 07:05:26;;;;;;;4.82;3.50;;;;;;;37.83;18.70;99737.25;5057455;28;20077;-74
2023/06/06 07:07:53;;;;;;;4.20;3.80;;;;;;;38.12;18.72;99727.13;5056896;28;20052;-74
2023/06/06 07:10:20;;;;;;;5.75;4.50;;;;;;;38.67;18.47;99686.03;5057098;28;20044;-73
2023/06/06 07:12:51;;;;;;;5.75;4.22;;;;;;;38.88;17.94;99684.69;5056117;28;20052;-74
2023/06/06 07:15:19;;;;;;;4.63;4.10;;;;;;;38.38;18.29;99678.44;5056185;28;20040;-74
2023/06/06 07:17:51;;;;;;;4.28;3.90;;;;;;;36.66;18.94;99684.75;5057118;28;20046;-74
2023/06/06 07:20:23;;;;;;;4.25;3.80;;;;;;;34.97;20.15;99678.16;5057036;28;20048;-76
2023/06/06 07:22:53;;;;;;;3.47;3.17;;;;;;;34.92;20.05;99685.31;5056541;28;20036;-74
2023/06/06 07:25:19;;;;;;;3.42;3.13;;;;;;;35.74;20.11;99681.03;5056969;28;20050;-76
2023/06/06 07:27:47;;;;;;;4.60;3.95;;;;;;;36.36;19.60;99678.06;5055535;28;20048;-73
2023/06/06 07:30:12;;;;;;;4.38;4.07;;;;;;;37.27;19.31;99677.13;5056813;28;20047;-74
2023/06/06 07:32:42;;;;;;;5.68;4.60;;;;;;;38.26;18.42;99674.41;5056819;28;20048;-74
2023/06/06 07:35:10;;;;;;;4.45;3.90;;;;;;;38.47;18.82;99675.88;5057238;28;20039;-73
2023/06/06 07:37:36;;;;;;;4.50;4.10;;;;;;;38.27;18.66;99674.06;5056455;28;20051;-74
2023/06/06 07:40:03;;;;;;;4.47;4.15;;;;;;;37.61;19.39;99668.06;5037721;28;20055;-74
2023/06/06 07:42:29;;;;;;;3.83;3.53;;;;;;;37.42;18.81;99660.38;5036373;28;20051;-76
2023/06/06 07:44:55;;;;;;;5.93;4.30;;;;;;;38.25;18.64;99659.63;5001598;28;20040;-75
2023/06/06 07:47:23;;;;;;;3.88;3.67;;;;;;;38.07;18.65;99661.16;5036309;28;20058;-76
2023/06/06 07:49:50;;;;;;;4.65;4.25;;;;;;;39.27;18.22;99664.22;5035768;28;20045;-76
2023/06/06 07:52:16;;;;;;;5.10;4.70;;;;;;;40.52;16.81;99665.50;5046803;28;20083;-75
2023/06/06 07:54:41;;;;;;;5.22;4.70;;;;;;;41.26;16.66;99663.56;5055298;28;20048;-74
2023/06/06 07:57:08;;;;;;;5.78;5.15;;;;;;;40.89;16.58;99668.16;5038318;28;20062;-74
2023/06/06 07:59:34;;;;;;;4.85;4.45;;;;;;;40.01;17.10;99665.47;5021187;28;20058;-75
2023/06/06 08:02:00;;;;;;;6.25;4.70;;;;;;;40.33;17.10;99657.13;5038212;28;20071;-75
2023/06/06 08:04:25;;;;;;;5.50;5.10;;;;;;;41.30;16.62;99657.03;5021791;28;20067;-75
2023/06/06 08:06:51;;;;;;;5.53;5.03;;;;;;;42.36;16.14;99658.50;5037610;28;20414;-75
2023/06/06 08:09:16;;;;;;;5.50;5.10;;;;;;;43.42;15.49;99652.81;5056318;28;20044;-74
2023/06/06 08:11:41;;;;;;;6.95;6.25;;;;;;;42.51;15.83;99648.91;5056115;28;20044;-75
2023/06/06 08:14:07;;;;;;;7.75;5.65;;;;;;;41.48;16.66;99649.63;5056228;28;20047;-75
2023/06/06 08:16:32;;;;;;;5.63;5.13;;;;;;;41.13;16.33;99648.41;5054720;28;20055;-75
2023/06/06 08:18:57;;;;;;;9.80;5.30;;;;;;;41.30;16.46;99648.63;5056076;28;20400;-74
2023/06/06 08:21:23;;;;;;;5.55;5.13;;;;;;;41.37;16.31;99650.16;5021062;28;20048;-75
2023/06/06 08:23:48;;;;;;;6.82;5.35;;;;;;;40.24;16.62;99639.38;5054613;28;20058;-74
2023/06/06 08:26:13;;;;;;;6.82;5.50;;;;;;;39.55;17.24;99644.59;5037825;28;20039;-74
2023/06/06 08:28:38;;;;;;;5.40;5.00;;;;;;;40.37;16.93;99635.00;5055926;28;20040;-74
2023/06/06 08:31:03;;;;;;;4.95;4.65;;;;;;;41.13;15.49;99640.03;5037686;28;20040;-74
2023/06/06 08:33:30;;;;;;;7.43;6.13;;;;;;;42.18;15.87;99637.13;5055647;28;20047;-74
2023/06/06 08:35:55;;;;;;;6.07;5.68;;;;;;;43.30;15.34;99637.78;5037322;28;20047;-73
2023/06/06 08:38:20;;;;;;;6.85;6.35;;;;;;;44.21;14.14;99639.69;5037534;28;20051;-74
2023/06/06 08:40:45;;;;;;;7.75;7.05;;;;;;;44.43;14.25;99639.53;5020702;28;20054;-74
2023/06/06 08:43:12;;;;;;;8.20;7.50;;;;;;;45.13;14.10;99633.38;5054907;28;20502;-74
2023/06/06 08:45:43;;;;;;;7.60;7.00;;;;;;;45.26;13.64;99634.28;5055800;28;20043;-74
2023/06/06 08:48:10;;;;;;;7.38;6.88;;;;;;;43.61;14.32;99660.16;5041027;28;20048;-76
2023/06/06 08:50:36;;;;;;;10.02;7.10;;;;;;;43.36;14.58;99622.41;5066155;28;20047;-76
2023/06/06 08:53:04;;;;;;;8.00;7.28;;;;;;;44.14;14.15;99617.72;5048805;28;20048;-78
2023/06/06 08:55:33;;;;;;;8.57;7.97;;;;;;;45.26;13.57;99622.22;5055755;28;20048;-76
2023/06/06 08:58:00;;;;;;;8.85;8.13;;;;;;;46.24;13.37;99614.00;5069083;28;20055;-76
2023/06/06 09:00:25;;;;;;;10.63;9.73;;;;;;;46.38;12.89;99610.06;5055979;28;20482;-77
2023/06/06 09:02:53;;;;;;;12.82;9.13;;;;;;;46.05;13.12;99616.50;5054890;28;20056;-76
2023/06/06 09:05:20;;;;;;;9.63;8.88;;;;;;;46.44;12.33;99603.84;5036511;28;20044;-76
2023/06/06 09:07:48;;;;;;;10.50;9.70;;;;;;;47.05;12.47;99603.97;5054900;28;20059;-75
2023/06/06 09:10:13;;;;;;;13.23;12.27;;;;;;;47.72;11.86;99604.47;5035997;28;20062;-75
2023/06/06 09:12:40;;;;;;;14.32;13.20;;;;;;;47.85;11.63;99606.13;5055052;28;20387;-76
2023/06/06 09:15:07;;;;;;;15.18;13.73;;;;;;;47.81;11.61;99603.16;5036307;28;20056;-75
2023/06/06 09:17:36;;;;;;;15.52;14.43;;;;;;;48.09;11.35;99594.72;5037593;28;20445;-76
2023/06/06 09:20:08;;;;;;;15.35;14.25;;;;;;;48.63;11.16;99595.03;5036894;28;20177;-77
2023/06/06 09:22:37;;;;;;;;;;;;;;;51.20;10.69;99593.59;5020363;28;20044;-79
2023/06/06 09:25:04;;;;;;;18.38;17.38;;;;;;;49.52;11.21;99585.91;5053534;28;19920;-78
2023/06/06 09:27:30;;;;;;;16.02;14.93;;;;;;;48.01;11.78;99582.34;5032444;28;20042;-73
2023/06/06 09:29:56;;;;;;;11.90;11.10;;;;;;;45.12;12.59;99574.56;5034921;28;20048;-76
2023/06/06 09:32:30;;;;;;;9.35;8.55;;;;;;;43.16;13.53;99575.28;5033248;28;20131;-76
2023/06/06 09:35:17;;;;;;;6.95;6.45;;;;;;;41.17;14.70;99571.13;5032888;28;20048;-77
2023/06/06 09:37:42;;;;;;;5.75;5.32;;;;;;;38.26;15.95;99591.69;5040234;28;20040;-75
2023/06/06 09:40:15;;;;;;;8.50;5.40;;;;;;;37.11;16.86;99594.88;5039997;28;20051;-75
2023/06/06 09:42:46;;;;;;;5.72;5.18;;;;;;;38.00;16.96;99604.94;5037652;28;20052;-76
2023/06/06 09:45:15;;;;;;;5.45;5.05;;;;;;;39.82;15.87;99601.25;5045316;28;20036;-77
2023/06/06 09:47:45;;;;;;;6.32;5.82;;;;;;;40.52;15.10;99593.63;5054018;28;20044;-77
2023/06/06 09:50:12;;;;;;;5.90;5.45;;;;;;;39.77;15.43;99598.50;5054734;28;20533;-76
2023/06/06 09:52:38;;;;;;;6.53;5.93;;;;;;;38.33;15.73;99558.75;5053391;28;20498;-76
2023/06/06 09:55:08;;;;;;;5.45;4.95;;;;;;;37.85;16.50;99556.91;5036410;28;20048;-75
2023/06/06 09:57:37;;;;;;;4.93;4.53;;;;;;;37.30;17.11;99556.16;5054056;28;20047;-75
2023/06/06 10:00:12;;;;;;;5.78;5.00;;;;;;;35.99;18.00;99619.19;5051913;28;20044;-74
2023/06/06 10:02:47;;;;;;;5.13;4.63;;;;;;;34.69;18.69;99594.28;5034478;28;20048;-75
2023/06/06 10:05:16;;;;;;;5.00;3.97;;;;;;;33.09;19.75;99607.13;5041415;28;20044;-74
2023/06/06 10:07:44;;;;;;;4.15;3.85;;;;;;;31.81;20.06;99603.50;5053730;28;20071;-74
2023/06/06 10:10:13;;;;;;;5.47;3.90;;;;;;;30.72;21.02;99588.84;5053135;28;20044;-75
2023/06/06 10:12:40;;;;;;;11.70;5.00;;;;;;;29.67;22.02;99609.88;5057024;28;20040;-75
2023/06/06 10:15:08;;;;;;;5.47;3.95;;;;;;;28.83;23.01;99612.41;5038440;28;20047;-76
2023/06/06 10:17:38;;;;;;;4.75;3.83;;;;;;;28.14;23.75;99618.09;5055759;28;20059;-76
2023/06/06 10:20:09;;;;;;;3.65;3.35;;;;;;;27.34;24.73;99609.56;5056217;28;20040;-76
2023/06/06 10:22:35;;;;;;;7.82;3.92;;;;;;;26.76;25.10;99616.91;5059243;28;20047;-75
2023/06/06 10:25:14;;;;;;;5.00;4.10;;;;;;;26.26;26.33;99648.53;5040531;28;20052;-75
2023/06/06 10:27:43;;;;;;;5.05;4.10;;;;;;;26.46;26.25;99615.72;5056677;28;20161;-75
2023/06/06 10:30:18;;;;;;;3.72;3.30;;;;;;;27.20;26.40;99629.03;5029793;28;20051;-75
2023/06/06 10:32:51;;;;;;;12.02;3.80;;;;;;;27.72;25.14;99623.28;5036713;28;20048;-73
2023/06/06 10:35:17;;;;;;;3.05;2.78;;;;;;;27.72;25.17;99600.53;5035635;28;20040;-75
2023/06/06 10:38:01;;;;;;;5.22;3.47;;;;;;;27.86;25.55;99598.53;5002889;28;20055;-78
2023/06/06 10:40:27;;;;;;;7.30;4.00;;;;;;;27.26;25.79;99612.56;5049289;28;20063;-77
2023/06/06 10:42:53;;;;;;;3.67;3.38;;;;;;;26.83;25.88;99563.06;5056477;28;20561;-76
2023/06/06 10:45:40;;;;;;;3.35;3.05;;;;;;;26.60;26.25;99628.34;5056768;28;20047;-75
2023/06/06 10:48:05;;;;;;;5.80;3.58;;;;;;;25.76;27.19;99608.97;5056648;28;20402;-77
2023/06/06 10:50:32;;;;;;;5.50;3.30;;;;;;;25.20;27.77;99598.31;5022609;28;20048;-76
2023/06/06 10:53:05;;;;;;;5.88;3.67;;;;;;;24.69;29.32;99615.06;5039270;28;20533;-77
2023/06/06 10:55:30;;;;;;;5.85;3.53;;;;;;;24.23;29.67;99607.44;5039352;28;20142;-77
2023/06/06 10:58:18;;;;;;;8.88;3.92;;;;;;;24.01;30.21;99610.38;5054568;28;20031;-76
2023/06/06 11:00:46;;;;;;;5.35;3.30;;;;;;;23.44;30.93;99628.44;5057296;28;20039;-74
2023/06/06 11:03:13;;;;;;;4.68;3.25;;;;;;;23.27;31.01;99607.06;5055707;28;20062;-74
2023/06/06 11:06:01;;;;;;;6.70;3.35;;;;;;;23.50;31.10;99607.78;5056451;28;20048;-76
2023/06/06 11:08:36;;;;;;;4.65;3.15;;;;;;;23.69;31.40;99609.88;5036661;28;20045;-75
2023/06/06 11:11:22;;;;;;;6.20;3.75;;;;;;;24.16;31.19;99606.50;5037024;28;20059;-77
2023/06/06 11:13:57;;;;;;;4.97;3.20;;;;;;;24.50;30.60;99603.00;5042136;28;20043;-74
2023/06/06 11:16:49;;;;;;;5.43;3.15;;;;;;;24.89;31.01;99593.34;5041886;28;20052;-76
2023/06/06 11:19:18;;;;;;;7.32;3.38;;;;;;;25.01;29.67;99593.66;5057916;28;20046;-75
2023/06/06 11:21:48;;;;;;;5.00;3.00;;;;;;;25.02;30.04;99589.88;5041029;28;20056;-77
2023/06/06 11:24:15;;;;;;;6.22;3.80;;;;;;;24.72;30.60;99595.56;5039947;28;20048;-78
2023/06/06 11:26:42;;;;;;;6.35;3.10;;;;;;;24.44;31.14;99587.47;5054526;28;20051;-78
2023/06/06 11:29:09;;;;;;;4.00;3.25;;;;;;;24.10;31.70;99582.78;5038812;28;20399;-77
2023/06/06 11:31:35;;;;;;;5.88;3.78;;;;;;;23.78;32.66;99588.81;5020781;28;20056;-76
2023/06/06 11:34:14;;;;;;;9.10;3.55;;;;;;;23.76;32.58;99594.44;5047687;28;20047;-79
2023/06/06 11:36:41;;;;;;;3.80;3.30;;;;;;;23.52;33.39;99586.66;5057707;28;20044;-69